createdAt,value
2019-04-05T00:00:25.085Z,99135.47
2019-04-05T00:02:54.305Z,99126.64
2019-04-05T00:05:23.553Z,99134.76
2019-04-05T00:07:52.795Z,99128.37
2019-04-05T00:10:22.002Z,99137.38
2019-04-05T00:12:51.377Z,99131.61
2019-04-05T00:15:20.619Z,99128.45
2019-04-05T00:17:49.789Z,99136.16
2019-04-05T00:20:18.996Z,99124.02
2019-04-05T00:22:48.299Z,99130.49
2019-04-05T00:25:17.483Z,99132.74
2019-04-05T00:27:46.750Z,99128.20
2019-04-05T00:30:15.982Z,99127.95
2019-04-05T00:32:45.223Z,99130.18
2019-04-05T00:35:14.398Z,99130.50
2019-04-05T00:37:43.601Z,99119.20
2019-04-05T00:40:12.833Z,99129.41
2019-04-05T00:42:42.028Z,99131.78
2019-04-05T00:45:11.276Z,99125.37
2019-04-05T00:47:40.582Z,99125.56
2019-04-05T00:50:09.887Z,99121.50
2019-04-05T00:52:39.194Z,99126.75
2019-04-05T00:55:08.734Z,99126.19
2019-04-05T00:57:37.959Z,99125.34
2019-04-05T01:00:07.346Z,99120.91
2019-04-05T01:02:36.666Z,99121.27
2019-04-05T01:05:07.010Z,99118.47
2019-04-05T01:07:36.324Z,99122.88
2019-04-05T01:10:06.209Z,99117.02
2019-04-05T01:12:35.387Z,99121.70
2019-04-05T01:15:04.903Z,99113.24
2019-04-05T01:17:34.181Z,99120.99
2019-04-05T01:20:03.792Z,99112.64
2019-04-05T01:22:33.370Z,99119.22
2019-04-05T01:25:02.927Z,99118.14
2019-04-05T01:27:32.197Z,99110.66
2019-04-05T01:30:01.484Z,99116.56
2019-04-05T01:32:30.756Z,99116.80
2019-04-05T01:35:00.004Z,99108.86
2019-04-05T01:37:29.224Z,99107.50
2019-04-05T01:39:58.491Z,99119.98
2019-04-05T01:42:27.661Z,99115.25
2019-04-05T01:44:56.882Z,99121.07
2019-04-05T01:47:26.130Z,99123.27
2019-04-05T01:49:55.312Z,99118.08
2019-04-05T01:52:24.520Z,99124.72
2019-04-05T01:54:53.805Z,99116.63
2019-04-05T01:57:23.054Z,99114.35
2019-04-05T01:59:52.219Z,99119.33
2019-04-05T02:02:21.495Z,99114.88
2019-04-05T02:04:52.757Z,99117.53
2019-04-05T02:07:21.761Z,99112.42
2019-04-05T02:09:50.936Z,99117.45
2019-04-05T02:12:20.497Z,99120.31
2019-04-05T02:14:49.736Z,99114.83
2019-04-05T02:17:18.977Z,99122.52
2019-04-05T02:19:48.270Z,99129.66
2019-04-05T02:22:17.502Z,99119.70
2019-04-05T02:24:46.841Z,99122.39
2019-04-05T02:27:16.082Z,99121.38
2019-04-05T02:29:45.261Z,99120.83
2019-04-05T02:32:14.448Z,99121.41
2019-04-05T02:34:43.643Z,99123.27
2019-04-05T02:37:12.985Z,99128.12
2019-04-05T02:39:42.173Z,99125.61
2019-04-05T02:42:11.439Z,99130.25
2019-04-05T02:44:41.186Z,99130.16
2019-04-05T02:47:10.441Z,99132.30
2019-04-05T02:49:39.700Z,99129.89
2019-04-05T02:52:08.902Z,99129.75
2019-04-05T02:54:38.069Z,99122.97
2019-04-05T02:57:07.297Z,99124.37
2019-04-05T02:59:36.546Z,99123.73
2019-04-05T03:02:05.721Z,99129.70
2019-04-05T03:04:34.947Z,99125.18
2019-04-05T03:07:04.195Z,99124.41
2019-04-05T03:09:33.362Z,99125.56
2019-04-05T03:12:02.667Z,99127.62
2019-04-05T03:14:31.843Z,99122.13
2019-04-05T03:17:01.013Z,99122.72
2019-04-05T03:19:31.164Z,99127.08
2019-04-05T03:22:02.377Z,99126.48
2019-04-05T03:24:31.552Z,99129.83
2019-04-05T03:27:02.768Z,99129.16
2019-04-05T03:29:32.300Z,99124.36
2019-04-05T03:32:01.460Z,99130.30
2019-04-05T03:34:30.647Z,99122.55
2019-04-05T03:36:59.940Z,99131.77
2019-04-05T03:39:29.184Z,99133.31
2019-04-05T03:41:58.431Z,99138.52
2019-04-05T03:44:27.811Z,99133.13
2019-04-05T03:46:57.981Z,99144.44
2019-04-05T03:49:27.392Z,99134.66
2019-04-05T03:51:56.590Z,99140.88
2019-04-05T03:54:25.892Z,99141.48
2019-04-05T03:56:55.567Z,99149.70
2019-04-05T03:59:24.812Z,99142.70
2019-04-05T04:01:54.851Z,99147.80
2019-04-05T04:04:24.101Z,99147.66
2019-04-05T04:06:53.347Z,99153.69
2019-04-05T04:09:22.577Z,99151.73
2019-04-05T04:11:52.570Z,99154.21
2019-04-05T04:14:21.817Z,99157.75
2019-04-05T04:16:51.256Z,99152.28
2019-04-05T04:19:20.508Z,99149.57
2019-04-05T04:21:53.151Z,99150.34
2019-04-05T04:24:22.533Z,99153.63
2019-04-05T04:26:51.790Z,99155.52
2019-04-05T04:29:20.977Z,99161.53
2019-04-05T04:31:50.387Z,99165.70
2019-04-05T04:34:20.319Z,99168.23
2019-04-05T04:36:49.642Z,99175.45
2019-04-05T04:39:18.920Z,99169.98
2019-04-05T04:41:48.164Z,99170.07
2019-04-05T04:44:17.385Z,99171.52
2019-04-05T04:46:48.068Z,99169.17
2019-04-05T04:49:17.662Z,99170.79
2019-04-05T04:51:46.962Z,99180.83
2019-04-05T04:54:16.194Z,99187.08
2019-04-05T04:56:45.372Z,99181.20
2019-04-05T04:59:14.677Z,99175.20
2019-04-05T05:01:45.705Z,99181.81
2019-04-05T05:04:15.391Z,99177.06
2019-04-05T05:06:44.833Z,99186.22
2019-04-05T05:09:14.243Z,99183.54
2019-04-05T05:11:43.762Z,99179.89
2019-04-05T05:14:13.144Z,99179.35
2019-04-05T05:16:42.381Z,99182.98
2019-04-05T05:19:11.688Z,99185.38
2019-04-05T05:21:41.144Z,99181.05
2019-04-05T05:24:10.563Z,99180.23
2019-04-05T05:26:40.026Z,99186.27
2019-04-05T05:29:09.442Z,99186.88
2019-04-05T05:31:38.760Z,99182.15
2019-04-05T05:34:08.185Z,99181.25
2019-04-05T05:36:37.563Z,99187.22
2019-04-05T05:39:07.695Z,99193.44
2019-04-05T05:41:37.022Z,99195.38
2019-04-05T05:44:06.424Z,99200.36
2019-04-05T05:46:36.262Z,99195.55
2019-04-05T05:49:05.592Z,99199.98
2019-04-05T05:51:34.872Z,99199.05
2019-04-05T05:54:04.274Z,99197.72
2019-04-05T05:56:33.739Z,99199.63
2019-04-05T05:59:03.197Z,99203.49
2019-04-05T06:01:32.475Z,99208.23
2019-04-05T06:04:01.808Z,99208.57
2019-04-05T06:06:31.319Z,99205.00
2019-04-05T06:09:01.116Z,99203.70
2019-04-05T06:11:30.516Z,99204.88
2019-04-05T06:13:59.914Z,99204.55
2019-04-05T06:16:29.342Z,99216.80
2019-04-05T06:18:59.024Z,99213.20
2019-04-05T06:21:28.351Z,99210.30
2019-04-05T06:23:57.753Z,99208.92
2019-04-05T06:26:27.101Z,99206.17
2019-04-05T06:28:56.358Z,99212.08
2019-04-05T06:31:25.685Z,99203.66
2019-04-05T06:33:54.927Z,99204.07
2019-04-05T06:36:24.120Z,99203.44
2019-04-05T06:38:53.889Z,99213.73
2019-04-05T06:41:23.276Z,99205.83
2019-04-05T06:43:52.605Z,99220.31
2019-04-05T06:46:21.967Z,99214.58
2019-04-05T06:48:51.240Z,99212.02
2019-04-05T06:51:20.787Z,99210.36
2019-04-05T06:53:49.983Z,99214.23
2019-04-05T06:56:19.308Z,99218.53
2019-04-05T06:58:48.719Z,99215.12
2019-04-05T07:01:17.984Z,99213.42
2019-04-05T07:03:47.314Z,99209.24
2019-04-05T07:06:16.666Z,99204.66
2019-04-05T07:08:53.557Z,99208.22
2019-04-05T07:11:17.187Z,99198.61
2019-04-05T07:13:46.368Z,99211.51
2019-04-05T07:16:15.771Z,99214.90
2019-04-05T07:18:45.234Z,99214.03
2019-04-05T07:21:17.169Z,99217.31
2019-04-05T07:23:45.478Z,99223.17
2019-04-05T07:26:15.026Z,99222.84
2019-04-05T07:28:44.360Z,99222.87
2019-04-05T07:31:13.869Z,99216.24
2019-04-05T07:33:43.156Z,99217.11
2019-04-05T07:36:12.463Z,99225.09
2019-04-05T07:38:41.890Z,99224.12
2019-04-05T07:41:11.320Z,99220.91
2019-04-05T07:43:40.672Z,99220.83
2019-04-05T07:46:10.069Z,99220.66
2019-04-05T07:48:45.053Z,99214.57
2019-04-05T07:51:10.566Z,99213.77
2019-04-05T07:53:39.961Z,99214.46
2019-04-05T07:56:09.588Z,99205.24
2019-04-05T07:58:38.815Z,99213.55
2019-04-05T08:01:08.140Z,99200.92
2019-04-05T08:03:37.610Z,99209.30
2019-04-05T08:06:06.996Z,99203.61
2019-04-05T08:08:39.505Z,99196.16
2019-04-05T08:11:08.733Z,99209.27
2019-04-05T08:13:38.648Z,99202.92
2019-04-05T08:16:07.976Z,99199.88
2019-04-05T08:18:37.393Z,99203.14
2019-04-05T08:21:06.641Z,99196.45
2019-04-05T08:23:36.036Z,99198.09
2019-04-05T08:26:05.372Z,99213.25
2019-04-05T08:28:34.567Z,99211.75
2019-04-05T08:31:03.980Z,99220.96
2019-04-05T08:33:36.291Z,99195.39
2019-04-05T08:36:04.476Z,99198.42
2019-04-05T08:38:33.731Z,99203.66
2019-04-05T08:41:03.120Z,99207.93
2019-04-05T08:43:32.544Z,99200.17
2019-04-05T08:46:01.897Z,99203.39
2019-04-05T08:48:31.389Z,99204.98
2019-04-05T08:51:00.796Z,99222.66
2019-04-05T08:53:30.121Z,99207.86
2019-04-05T08:55:59.471Z,99210.92
2019-04-05T08:58:33.581Z,99194.91
2019-04-05T09:00:59.955Z,99206.53
2019-04-05T09:03:29.345Z,99208.91
2019-04-05T09:05:58.661Z,99209.78
2019-04-05T09:08:28.108Z,99198.63
2019-04-05T09:10:57.503Z,99205.66
2019-04-05T09:13:26.918Z,99213.69
2019-04-05T09:15:56.272Z,99197.93
2019-04-05T09:18:25.604Z,99202.14
2019-04-05T09:20:55.605Z,99194.77
2019-04-05T09:23:24.916Z,99191.80
2019-04-05T09:25:54.270Z,99179.14
2019-04-05T09:28:23.674Z,99190.76
2019-04-05T09:30:52.940Z,99187.04
2019-04-05T09:33:22.335Z,99185.14
2019-04-05T09:35:52.030Z,99186.40
2019-04-05T09:38:21.432Z,99195.05
2019-04-05T09:40:50.868Z,99191.34
2019-04-05T09:43:20.272Z,99192.17
2019-04-05T09:45:49.707Z,99194.67
2019-04-05T09:48:19.093Z,99182.38
2019-04-05T09:50:48.414Z,99193.80
2019-04-05T09:53:17.827Z,99197.86
2019-04-05T09:55:47.209Z,99199.13
2019-04-05T09:58:16.546Z,99193.33
2019-04-05T10:00:45.802Z,99190.28
2019-04-05T10:03:15.235Z,99188.02
2019-04-05T10:05:44.612Z,99181.70
2019-04-05T10:08:13.998Z,99184.78
2019-04-05T10:10:43.388Z,99185.66
2019-04-05T10:13:12.649Z,99189.45
2019-04-05T10:15:41.937Z,99185.62
2019-04-05T10:18:11.335Z,99197.89
2019-04-05T10:20:40.651Z,99188.48
2019-04-05T10:23:09.993Z,99189.75
2019-04-05T10:25:39.266Z,99171.45
2019-04-05T10:28:08.552Z,99205.51
2019-04-05T10:30:37.870Z,99201.08
2019-04-05T10:33:07.297Z,99186.21
2019-04-05T10:35:36.604Z,99182.87
2019-04-05T10:38:05.870Z,99184.17
2019-04-05T10:40:35.270Z,99196.41
2019-04-05T10:43:04.533Z,99184.98
2019-04-05T10:45:33.774Z,99189.55
2019-04-05T10:48:03.219Z,99188.81
2019-04-05T10:50:32.554Z,99182.27
2019-04-05T10:53:01.901Z,99190.77
2019-04-05T10:55:31.269Z,99200.35
2019-04-05T10:58:00.623Z,99185.61
2019-04-05T11:00:29.871Z,99183.00
2019-04-05T11:02:59.439Z,99181.29
2019-04-05T11:05:28.700Z,99183.13
2019-04-05T11:07:58.098Z,99186.99
2019-04-05T11:10:27.376Z,99187.02
2019-04-05T11:12:56.782Z,99179.66
2019-04-05T11:15:26.193Z,99184.74
2019-04-05T11:17:55.538Z,99176.54
2019-04-05T11:20:24.899Z,99192.03
2019-04-05T11:22:54.263Z,99182.96
2019-04-05T17:21:29.220Z,99230.20
2019-04-05T17:23:58.514Z,99234.06
2019-04-05T17:26:27.677Z,99236.30
2019-04-05T17:28:56.848Z,99234.43
2019-04-05T17:31:26.072Z,99236.02
2019-04-05T17:33:55.249Z,99242.59
2019-04-05T17:36:24.670Z,99246.56
2019-04-05T17:38:53.964Z,99251.52
2019-04-05T17:41:23.223Z,99250.47
2019-04-05T17:43:52.540Z,99255.75
2019-04-05T17:46:21.845Z,99260.03
2019-04-05T17:48:51.949Z,99256.32
2019-04-05T17:51:21.409Z,99259.67
2019-04-05T17:53:50.717Z,99262.99
2019-04-05T17:56:19.903Z,99265.68
2019-04-05T17:58:49.764Z,99276.17
2019-04-05T18:01:18.939Z,99274.24
2019-04-05T18:03:48.109Z,99277.91
2019-04-05T18:06:18.143Z,99282.31
2019-04-05T18:08:47.328Z,99286.22
2019-04-05T18:11:16.511Z,99283.41
2019-04-05T18:13:45.726Z,99286.02
2019-04-05T18:16:14.976Z,99282.52
2019-04-05T18:18:44.172Z,99288.05
2019-04-05T18:21:13.524Z,99290.33
2019-04-05T18:23:43.038Z,99296.31
2019-04-05T18:26:12.429Z,99294.48
2019-04-05T18:28:41.638Z,99294.04
2019-04-05T18:31:10.816Z,99300.34
2019-04-05T18:33:40.009Z,99291.92
2019-04-05T18:36:09.266Z,99304.16
2019-04-05T18:38:38.763Z,99299.11
2019-04-05T18:41:08.015Z,99309.27
2019-04-05T18:43:37.186Z,99306.51
2019-04-05T18:46:06.410Z,99309.33
2019-04-05T18:48:35.798Z,99305.97
2019-04-05T18:51:04.975Z,99315.98
2019-04-05T18:53:37.881Z,99313.72
2019-04-05T18:56:05.114Z,99310.63
2019-04-05T18:58:34.278Z,99314.87
2019-04-05T19:01:03.508Z,99321.45
2019-04-05T19:03:32.737Z,99316.64
2019-04-05T19:06:01.991Z,99309.41
2019-04-05T19:08:39.399Z,99318.04
2019-04-05T19:11:02.931Z,99319.56
2019-04-05T19:13:32.181Z,99317.21
2019-04-05T19:16:01.443Z,99322.52
2019-04-05T19:18:30.794Z,99319.19
2019-04-05T19:21:00.242Z,99319.61
2019-04-05T19:23:29.748Z,99325.27
2019-04-05T19:25:58.930Z,99322.53
2019-04-05T19:28:28.239Z,99330.53
2019-04-05T19:48:36.010Z,99334.70
2019-04-05T19:51:05.641Z,99343.89
2019-04-05T19:53:34.921Z,99332.08
2019-04-05T19:56:04.163Z,99342.03
2019-04-05T19:58:33.384Z,99343.91
2019-04-05T20:01:02.634Z,99339.03
2019-04-05T20:03:31.890Z,99344.23
2019-04-05T20:06:01.094Z,99346.37
2019-04-05T20:08:30.343Z,99347.81
2019-04-05T20:10:59.644Z,99349.28
2019-04-05T20:13:28.818Z,99347.34
2019-04-05T20:15:58.084Z,99353.14
2019-04-05T20:18:27.364Z,99350.14
2019-04-05T20:20:56.638Z,99357.73
2019-04-05T20:23:25.829Z,99349.11
2019-04-05T20:25:55.096Z,99350.14
2019-04-05T20:28:24.453Z,99350.54
2019-04-05T20:30:53.796Z,99355.83
2019-04-05T20:33:22.977Z,99357.32
2019-04-05T20:35:52.389Z,99351.19
2019-04-05T20:38:21.573Z,99354.64
2019-04-05T20:40:50.784Z,99360.05
2019-04-05T20:43:20.075Z,99358.02
2019-04-05T20:45:49.475Z,99357.14
2019-04-05T20:48:18.660Z,99350.52
2019-04-05T20:50:47.931Z,99361.23
2019-04-05T20:53:17.108Z,99361.87
2019-04-05T20:55:46.376Z,99361.78
2019-04-05T20:58:15.629Z,99365.33
2019-04-05T21:00:44.935Z,99357.99
2019-04-05T21:03:14.184Z,99369.19
2019-04-05T21:06:02.464Z,99362.59
2019-04-05T21:08:31.708Z,99363.27
2019-04-05T21:11:00.995Z,99363.63
2019-04-05T21:13:30.590Z,99358.69
2019-04-05T21:16:01.014Z,99365.83
2019-04-05T21:18:30.244Z,99372.59
2019-04-05T21:20:59.534Z,99364.62
2019-04-05T21:23:28.792Z,99368.87
2019-04-05T21:25:58.109Z,99364.78
2019-04-05T21:28:27.391Z,99370.59
2019-04-05T21:30:56.644Z,99363.77
2019-04-05T21:33:25.854Z,99362.25
2019-04-05T21:35:56.068Z,99363.94
2019-04-05T21:38:25.331Z,99371.06
2019-04-05T21:40:54.588Z,99361.33
2019-04-05T21:43:23.830Z,99358.14
2019-04-05T21:45:53.115Z,99368.53
2019-04-05T21:48:22.371Z,99361.56
2019-04-05T21:50:51.629Z,99358.98
2019-04-05T21:53:20.932Z,99364.77
2019-04-05T21:55:50.173Z,99359.52
2019-04-05T21:58:19.357Z,99355.62
2019-04-05T22:00:50.701Z,99354.76
2019-04-05T22:03:19.930Z,99356.27
2019-04-05T22:05:49.147Z,99351.02
2019-04-05T22:08:18.399Z,99354.89
2019-04-05T22:10:47.584Z,99358.66
2019-04-05T22:13:16.897Z,99358.64
2019-04-05T22:15:46.065Z,99352.89
2019-04-05T22:18:15.257Z,99350.52
2019-04-05T22:20:44.490Z,99357.30
2019-04-05T22:23:13.712Z,99347.08
2019-04-05T22:25:42.883Z,99351.85
2019-04-05T22:28:12.114Z,99352.20
2019-04-05T22:30:41.286Z,99360.67
2019-04-05T22:33:10.657Z,99364.75
2019-04-05T22:35:39.874Z,99359.61
2019-04-05T22:38:09.117Z,99354.08
2019-04-05T22:40:38.296Z,99367.10
2019-04-05T22:43:07.535Z,99368.44
2019-04-05T22:45:36.876Z,99362.55
2019-04-05T22:48:06.019Z,99362.39
2019-04-05T22:50:35.318Z,99359.70
2019-04-05T22:53:04.505Z,99359.00
2019-04-05T22:55:33.692Z,99361.20
2019-04-05T22:58:02.899Z,99359.67
2019-04-05T23:00:37.466Z,99366.41
2019-04-05T23:03:06.751Z,99353.02
2019-04-05T23:05:35.936Z,99362.70
2019-04-05T23:08:05.154Z,99362.70
2019-04-05T23:10:34.675Z,99360.80
2019-04-05T23:13:03.928Z,99368.06
2019-04-05T23:15:33.249Z,99364.61
2019-04-05T23:18:02.794Z,99366.25
2019-04-05T23:20:32.045Z,99375.73
2019-04-05T23:23:02.053Z,99362.66
2019-04-05T23:25:31.245Z,99372.27
2019-04-05T23:28:00.492Z,99367.92
2019-04-05T23:30:31.474Z,99369.56
2019-04-05T23:33:00.665Z,99373.61
2019-04-05T23:35:29.841Z,99364.41
2019-04-05T23:37:59.089Z,99370.30
2019-04-05T23:40:28.438Z,99366.67
2019-04-05T23:42:57.690Z,99368.01
2019-04-05T23:45:26.917Z,99367.27
2019-04-05T23:47:56.089Z,99368.88
2019-04-05T23:50:25.266Z,99363.53
2019-04-05T23:52:54.495Z,99364.39
2019-04-05T23:55:32.768Z,99361.07
2019-04-05T23:57:54.573Z,99358.41
